アルマトイ の空港の天気 - METARとTAF

アルマトイ国際空港 ( UAAA / ALA ) - カザフスタン アルマトイ
飛行場実況気象(Metar)
観測時間10/24 07:00 QYZT (10/24 02:00 UTC)
風向・風速不定 1m/s
視程5000m
天気現象もや
なし
気温-1℃
湿度93%
気圧1029hPa
METARUAAA 240200Z VRB01MPS 5000 BR NSC M01/M02 Q1029 R05R/1///60 NOSIG
過去の天気等 Google飛行場航空写真 Wunderground天気予報

過去48時間のMETAR

飛行場予報(TAF)
発表時間: 10/24 04:01 QYZT (10/23 23:01 UTC)
予報対象時間: 24日5時 QYZT ~ 25日5時 QYZT
風向・風速南西 3m/s
視程2000m
天気現象もや 煙
全天の4割程度の雲 雲底高度 3050m
24日5時 QYZT ~ 24日8時 QYZT に一時的に
風向・風速南 3m/s
視程500m
天気現象氷霧 煙
少しの雲 雲底高度 90m
24日9時 QYZT ~ 24日10時 QYZT に徐々に
風向・風速北北東 3m/s
視程10km以上
天気現象運行に影響にある天気現象が終了
24日9時 QYZT ~ 24日17時 QYZT に一時的に
風向・風速東北東 3m/s 瞬間風速 8m/s
24日17時 QYZT ~ 24日18時 QYZT に徐々に
風向・風速南南東 3m/s
視程3100m
天気現象もや 煙
24日19時 QYZT ~ 25日5時 QYZT に一時的に
風向・風速南西 3m/s
視程1200m
TAF UAAA 232301Z 2400/2424 22003MPS 2000 BR FU SCT100 TX12/2408Z TNM03/2401Z
TEMPO 2400/2403 17003MPS 0500 FZFG FU FEW003
BECMG 2404/2405 02003MPS 9999 NSW
TEMPO 2404/2412 07003G08MPS
BECMG 2412/2413 16003MPS 3100 BR FU
TEMPO 2414/2424 22003MPS 1200